createdAt,value
2019-01-19T00:02:28.057Z,-1.88
2019-01-19T00:05:38.982Z,-1.96
2019-01-19T00:08:20.794Z,-2.09
2019-01-19T00:11:41.088Z,-1.97
2019-01-19T00:14:19.213Z,-1.92
2019-01-19T00:17:22.693Z,-2.12
2019-01-19T00:20:37.800Z,-2.18
2019-01-19T00:23:24.863Z,-2.18
2019-01-19T00:26:36.948Z,-2.20
2019-01-19T00:29:13.429Z,-2.22
2019-01-19T00:32:08.668Z,-2.28
2019-01-19T00:34:57.473Z,-2.31
2019-01-19T00:37:42.188Z,-2.21
2019-01-19T00:41:05.759Z,-2.19
2019-01-19T00:43:43.146Z,-2.12
2019-01-19T00:47:04.064Z,-2.21
2019-01-19T00:49:56.819Z,-2.26
2019-01-19T00:52:35.709Z,-2.37
2019-01-19T00:55:50.880Z,-2.39
2019-01-19T00:58:40.543Z,-2.41
2019-01-19T01:01:55.098Z,-2.85
2019-01-19T01:04:49.022Z,-2.61
2019-01-19T01:07:59.893Z,-2.71
2019-01-19T01:10:45.318Z,-2.80
2019-01-19T01:13:56.244Z,-2.76
2019-01-19T01:16:45.668Z,-2.58
2019-01-19T01:20:09.895Z,-2.58
2019-01-19T01:23:00.179Z,-2.57
2019-01-19T01:25:55.703Z,-2.60
2019-01-19T01:29:19.718Z,-2.56
2019-01-19T01:32:00.628Z,-2.53
2019-01-19T01:35:05.459Z,-2.55
2019-01-19T01:38:32.717Z,-2.56
2019-01-19T01:41:37.729Z,-2.53
2019-01-19T01:45:00.551Z,-2.66
2019-01-19T01:48:03.014Z,-2.85
2019-01-19T01:50:55.563Z,-2.95
2019-01-19T01:54:05.943Z,-2.84
2019-01-19T01:56:33.419Z,-2.79
2019-01-19T01:59:45.083Z,-2.70
2019-01-19T02:02:30.520Z,-2.73
2019-01-19T02:05:40.159Z,-2.72
2019-01-19T02:08:45.658Z,-2.70
2019-01-19T02:11:35.795Z,-2.74
2019-01-19T02:14:33.934Z,-2.72
2019-01-19T02:17:37.440Z,-2.83
2019-01-19T02:20:21.808Z,-2.87
2019-01-19T02:23:12.443Z,-2.89
2019-01-19T02:26:26.153Z,-2.81
2019-01-19T02:29:47.493Z,-2.86
2019-01-19T02:32:44.439Z,-3.13
2019-01-19T02:35:49.670Z,-3.16
2019-01-19T02:38:32.304Z,-3.17
2019-01-19T02:41:47.690Z,-3.23
2019-01-19T02:45:07.617Z,-3.21
2019-01-19T02:48:32.719Z,-3.08
2019-01-19T02:51:25.934Z,-3.10
2019-01-19T02:54:25.678Z,-3.08
2019-01-19T02:57:21.168Z,-3.08
2019-01-19T03:00:57.592Z,-3.08
2019-01-19T03:03:54.695Z,-3.06
2019-01-19T03:06:54.163Z,-3.10
2019-01-19T03:09:58.064Z,-3.05
2019-01-19T03:12:43.818Z,-3.09
2019-01-19T03:15:41.209Z,-3.08
2019-01-19T03:18:53.718Z,-3.13
2019-01-19T03:21:40.730Z,-3.14
2019-01-19T03:24:42.859Z,-3.14
2019-01-19T03:27:27.045Z,-3.16
2019-01-19T03:30:31.177Z,-3.16
2019-01-19T03:33:46.468Z,-3.16
2019-01-19T03:36:44.578Z,-3.10
2019-01-19T03:39:43.559Z,-3.12
2019-01-19T03:42:37.074Z,-3.09
2019-01-19T03:45:40.616Z,-3.27
2019-01-19T03:48:43.693Z,-3.28
2019-01-19T03:51:43.174Z,-3.18
2019-01-19T03:54:33.131Z,-3.14
2019-01-19T03:57:19.684Z,-3.16
2019-01-19T04:00:18.408Z,-3.20
2019-01-19T04:03:20.818Z,-3.10
2019-01-19T04:06:17.017Z,-3.11
2019-01-19T04:09:27.869Z,-3.20
2019-01-19T04:12:20.600Z,-3.12
2019-01-19T04:15:12.529Z,-3.13
2019-01-19T04:18:22.984Z,-3.17
2019-01-19T04:21:26.871Z,-3.21
2019-01-19T04:23:59.129Z,-3.11
2019-01-19T04:26:34.004Z,-3.12
2019-01-19T04:29:01.489Z,-3.12
2019-01-19T04:31:28.861Z,-3.26
2019-01-19T04:33:56.816Z,-3.30
2019-01-19T04:36:24.503Z,-3.35
2019-01-19T04:38:52.139Z,-3.30
2019-01-19T04:41:19.599Z,-3.27
2019-01-19T04:43:46.990Z,-3.48
2019-01-19T04:46:14.734Z,-3.48
2019-01-19T04:48:42.570Z,-3.59
2019-01-19T04:51:10.028Z,-3.60
2019-01-19T04:53:37.421Z,-3.67
2019-01-19T04:56:04.994Z,-3.64
2019-01-19T04:58:32.413Z,-3.75
2019-01-19T05:01:04.374Z,-3.53
2019-01-19T05:03:31.777Z,-3.51
2019-01-19T05:05:59.448Z,-3.55
2019-01-19T05:08:26.860Z,-3.48
2019-01-19T05:10:54.339Z,-3.44
2019-01-19T05:13:21.754Z,-3.59
2019-01-19T05:15:49.216Z,-3.61
2019-01-19T05:18:17.098Z,-3.62
2019-01-19T05:20:44.555Z,-3.52
2019-01-19T05:23:11.957Z,-3.48
2019-01-19T05:25:39.393Z,-3.44
2019-01-19T05:28:06.778Z,-3.69
2019-01-19T05:30:34.242Z,-3.67
2019-01-19T05:33:01.624Z,-3.81
2019-01-19T05:35:29.398Z,-3.56
2019-01-19T05:37:56.869Z,-3.56
2019-01-19T05:40:24.338Z,-3.57
2019-01-19T05:42:51.724Z,-3.55
2019-01-19T05:45:19.209Z,-3.51
2019-01-19T05:47:46.633Z,-3.54
2019-01-19T05:50:21.630Z,-3.47
2019-01-19T05:52:49.026Z,-3.38
2019-01-19T05:55:16.492Z,-3.40
2019-01-19T05:57:44.153Z,-3.44
2019-01-19T06:00:14.579Z,-3.41
2019-01-19T06:02:41.999Z,-3.38
2019-01-19T06:05:09.669Z,-3.43
2019-01-19T06:07:37.628Z,-3.40
2019-01-19T06:10:06.357Z,-3.38
2019-01-19T06:12:33.838Z,-3.42
2019-01-19T06:15:03.139Z,-3.40
2019-01-19T06:17:32.329Z,-3.40
2019-01-19T06:19:59.739Z,-3.41
2019-01-19T06:22:27.234Z,-3.40
2019-01-19T06:24:57.707Z,-3.38
2019-01-19T06:27:25.204Z,-3.38
2019-01-19T06:29:52.629Z,-3.36
2019-01-19T06:32:20.694Z,-3.36
2019-01-19T06:34:48.459Z,-3.44
2019-01-19T06:37:15.920Z,-3.36
2019-01-19T06:39:43.375Z,-3.39
2019-01-19T06:42:10.838Z,-3.33
2019-01-19T06:44:40.804Z,-3.31
2019-01-19T06:47:08.269Z,-3.33
2019-01-19T06:49:35.678Z,-3.24
2019-01-19T06:52:03.278Z,-3.26
2019-01-19T06:54:30.788Z,-3.30
2019-01-19T06:56:58.259Z,-3.28
2019-01-19T06:59:25.660Z,-3.27
2019-01-19T07:01:53.242Z,-3.26
2019-01-19T07:04:30.832Z,-3.27
2019-01-19T07:07:02.569Z,-3.25
2019-01-19T07:09:28.862Z,-3.38
2019-01-19T07:11:56.533Z,-3.34
2019-01-19T07:14:23.974Z,-3.28
2019-01-19T07:16:51.476Z,-3.29
2019-01-19T07:19:18.838Z,-3.24
2019-01-19T07:21:46.304Z,-3.29
2019-01-19T07:24:13.717Z,-3.25
2019-01-19T07:26:41.174Z,-3.23
2019-01-19T07:29:08.599Z,-3.28
2019-01-19T07:31:36.060Z,-3.26
2019-01-19T07:34:03.719Z,-3.23
2019-01-19T07:36:31.229Z,-3.22
2019-01-19T07:38:58.658Z,-3.26
2019-01-19T07:41:26.119Z,-3.20
2019-01-19T07:44:13.820Z,-3.17
2019-01-19T07:46:47.128Z,-3.24
2019-01-19T07:49:15.824Z,-3.13
2019-01-19T07:51:47.329Z,-3.14
2019-01-19T07:54:14.925Z,-2.97
2019-01-19T07:56:42.403Z,-2.74
2019-01-19T07:59:10.134Z,-2.81
2019-01-19T08:01:52.534Z,-2.85
2019-01-19T08:04:23.079Z,-2.58
2019-01-19T08:06:52.161Z,-2.62
2019-01-19T08:09:19.708Z,-2.39
2019-01-19T08:11:47.184Z,-2.52
2019-01-19T08:14:17.137Z,-2.52
2019-01-19T08:16:47.734Z,-2.60
2019-01-19T08:19:15.249Z,-2.70
2019-01-19T08:21:42.713Z,-2.67
2019-01-19T08:24:10.315Z,-2.63
2019-01-19T08:26:37.741Z,-2.63
2019-01-19T08:29:05.339Z,-2.59
2019-01-19T08:31:32.779Z,-2.60
2019-01-19T08:34:00.221Z,-2.46
2019-01-19T08:36:28.009Z,-2.48
2019-01-19T08:38:55.483Z,-2.49
2019-01-19T08:41:22.911Z,-2.44
2019-01-19T08:43:55.526Z,-2.51
2019-01-19T08:46:22.965Z,-2.34
2019-01-19T08:48:50.519Z,-2.38
2019-01-19T08:51:17.918Z,-2.30
2019-01-19T08:53:45.466Z,-2.21
2019-01-19T08:56:12.898Z,-2.30
2019-01-19T08:58:40.404Z,-2.11
2019-01-19T09:01:07.919Z,-2.15
2019-01-19T09:03:35.419Z,-2.11
2019-01-19T09:06:02.965Z,-2.03
2019-01-19T09:08:30.423Z,-1.90
2019-01-19T09:10:57.854Z,-1.85
2019-01-19T09:13:25.337Z,-1.90
2019-01-19T09:15:56.359Z,-1.91
2019-01-19T09:18:23.815Z,-1.80
2019-01-19T09:20:51.353Z,-1.82
2019-01-19T09:23:29.275Z,-1.72
2019-01-19T09:25:57.693Z,-1.71
2019-01-19T09:28:25.154Z,-1.70
2019-01-19T09:30:53.139Z,-1.68
2019-01-19T09:33:21.202Z,-1.58
2019-01-19T09:35:49.050Z,-1.51
2019-01-19T09:38:20.137Z,-1.41
2019-01-19T09:40:48.588Z,-1.57
2019-01-19T09:43:16.218Z,-1.46
2019-01-19T09:45:43.599Z,-1.45
2019-01-19T09:48:11.063Z,-1.38
2019-01-19T09:50:39.238Z,-1.31
2019-01-19T09:53:06.884Z,-1.23
2019-01-19T09:55:34.305Z,-1.28
2019-01-19T09:58:01.788Z,-1.30
2019-01-19T10:00:35.632Z,-1.26
2019-01-19T10:02:58.739Z,-1.13
2019-01-19T10:05:26.437Z,-0.98
2019-01-19T10:07:54.183Z,-0.95
2019-01-19T10:10:21.649Z,-1.02
2019-01-19T10:12:49.173Z,-1.12
2019-01-19T10:15:16.739Z,-1.15
2019-01-19T10:17:44.378Z,-0.97
2019-01-19T10:20:14.527Z,-1.10
2019-01-19T10:22:41.981Z,-1.06
2019-01-19T10:25:10.456Z,-0.96
2019-01-19T10:27:37.886Z,-0.93
2019-01-19T10:30:15.185Z,-0.98
2019-01-19T10:32:42.652Z,-0.93
2019-01-19T10:35:10.791Z,-0.87
2019-01-19T10:37:38.290Z,-0.81
2019-01-19T10:40:06.955Z,-0.74
2019-01-19T10:42:34.521Z,-0.71
2019-01-19T10:45:01.926Z,-0.60
2019-01-19T10:47:29.371Z,-0.57
2019-01-19T10:49:56.830Z,-0.67
2019-01-19T10:52:25.966Z,-0.48
2019-01-19T10:54:53.643Z,-0.44
2019-01-19T10:57:21.055Z,-0.34
2019-01-19T10:59:48.567Z,-0.38
2019-01-19T11:02:16.176Z,-0.31
2019-01-19T11:04:43.731Z,-0.31
2019-01-19T11:07:11.192Z,-0.17
2019-01-19T11:09:39.060Z,-0.39
2019-01-19T11:12:06.451Z,-0.20
2019-01-19T11:14:34.376Z,-0.26
2019-01-19T11:17:01.821Z,-0.33
2019-01-19T11:19:29.495Z,-0.25
2019-01-19T11:21:56.926Z,-0.20
2019-01-19T11:24:24.410Z,-0.21
2019-01-19T11:26:51.805Z,0.03
2019-01-19T11:29:19.246Z,-0.07
2019-01-19T11:31:46.636Z,-0.01
2019-01-19T11:34:14.121Z,0.02
2019-01-19T11:36:41.891Z,0.03
2019-01-19T11:39:09.356Z,0.18
2019-01-19T11:41:39.495Z,0.31
2019-01-19T11:44:22.266Z,0.49
2019-01-19T11:46:59.623Z,0.54
2019-01-19T11:49:29.350Z,0.51
2019-01-19T11:53:04.815Z,0.53
2019-01-19T11:55:46.044Z,0.63
2019-01-19T11:58:09.531Z,0.57
2019-01-19T12:00:38.582Z,0.62
2019-01-19T12:03:11.726Z,0.56
2019-01-19T12:05:39.626Z,0.66
2019-01-19T12:08:08.131Z,0.60
2019-01-19T12:10:35.666Z,0.65
2019-01-19T12:13:03.141Z,0.64
2019-01-19T12:15:30.710Z,0.70
2019-01-19T12:17:58.216Z,0.75
2019-01-19T12:20:32.005Z,0.72
2019-01-19T12:22:59.438Z,0.69
2019-01-19T12:25:27.035Z,0.73
2019-01-19T12:27:54.433Z,0.72
2019-01-19T12:30:24.047Z,0.70
2019-01-19T12:32:51.460Z,0.69
2019-01-19T12:35:18.916Z,0.75
2019-01-19T12:37:46.448Z,0.76
2019-01-19T12:40:15.595Z,0.84
2019-01-19T12:42:44.145Z,0.92
2019-01-19T12:45:15.151Z,0.88
2019-01-19T12:47:42.550Z,0.91
2019-01-19T12:50:14.626Z,0.89
2019-01-19T12:52:42.176Z,0.82
2019-01-19T12:55:09.925Z,0.81
2019-01-19T12:57:37.421Z,0.84
2019-01-19T13:00:08.664Z,0.77
2019-01-19T13:02:36.085Z,0.75
2019-01-19T13:05:05.840Z,0.81
2019-01-19T13:07:33.217Z,0.83
2019-01-19T13:10:31.230Z,0.80
2019-01-19T13:13:05.525Z,0.69
2019-01-19T13:16:32.505Z,0.66
2019-01-19T13:19:41.853Z,0.70
2019-01-19T13:22:38.916Z,0.74
2019-01-19T13:25:35.905Z,0.71
2019-01-19T13:28:50.196Z,0.65
2019-01-19T13:31:50.459Z,0.61
2019-01-19T13:34:59.012Z,0.56
2019-01-19T13:37:54.331Z,0.54
2019-01-19T13:40:52.135Z,0.49
2019-01-19T13:43:51.235Z,0.55
2019-01-19T13:46:43.901Z,0.55
2019-01-19T13:50:14.268Z,0.52
2019-01-19T13:53:21.408Z,0.45
2019-01-19T13:56:33.656Z,0.45
2019-01-19T13:59:43.600Z,0.42
2019-01-19T14:02:43.037Z,0.44
2019-01-19T14:05:49.415Z,0.45
2019-01-19T14:08:58.892Z,0.36
2019-01-19T14:12:03.955Z,0.37
2019-01-19T14:14:39.076Z,0.31
2019-01-19T14:17:32.650Z,0.29
2019-01-19T14:20:10.010Z,0.30
2019-01-19T14:23:13.845Z,0.23
2019-01-19T14:26:25.655Z,0.21
2019-01-19T14:29:30.880Z,0.17
2019-01-19T14:32:35.795Z,0.21
2019-01-19T14:35:26.981Z,0.17
2019-01-19T14:38:57.392Z,0.17
2019-01-19T14:42:02.290Z,0.07
2019-01-19T14:45:03.915Z,0.04
2019-01-19T14:48:18.977Z,0.07
2019-01-19T14:51:43.260Z,0.04
2019-01-19T14:54:50.726Z,-0.04
2019-01-19T14:58:01.991Z,-0.05
2019-01-19T15:00:52.149Z,-0.04
2019-01-19T15:03:48.976Z,-0.08
2019-01-19T15:06:34.776Z,-0.09
2019-01-19T15:09:42.230Z,-0.09
2019-01-19T15:12:58.920Z,-0.09
2019-01-19T15:15:50.686Z,-0.14
2019-01-19T15:19:15.290Z,-0.12
2019-01-19T15:22:09.025Z,-0.17
2019-01-19T15:25:14.242Z,-0.26
2019-01-19T15:28:32.525Z,-0.17
2019-01-19T15:31:39.247Z,-0.26
2019-01-19T15:38:45.242Z,-0.36
2019-01-19T15:41:52.976Z,-0.42
2019-01-19T15:50:05.531Z,-0.47
2019-01-19T15:53:20.466Z,-0.46
2019-01-19T15:56:29.611Z,-0.57
2019-01-19T15:59:18.376Z,-0.59
2019-01-19T16:02:26.381Z,-0.60
2019-01-19T16:05:30.857Z,-0.64
2019-01-19T16:08:32.897Z,-0.72
2019-01-19T16:11:26.204Z,-0.74
2019-01-19T16:14:46.782Z,-0.79
2019-01-19T16:17:57.888Z,-0.85
2019-01-19T16:21:22.096Z,-0.90
2019-01-19T16:24:30.336Z,-0.88
2019-01-19T16:27:29.851Z,-0.88
2019-01-19T16:30:48.026Z,-0.90
2019-01-19T16:33:24.986Z,-0.93
2019-01-19T16:36:23.141Z,-0.94
2019-01-19T16:39:30.375Z,-0.98
2019-01-19T16:42:39.413Z,-1.02
2019-01-19T16:45:42.409Z,-1.01
2019-01-19T16:48:43.856Z,-1.03
2019-01-19T16:51:48.781Z,-1.09
2019-01-19T16:54:46.266Z,-1.14
2019-01-19T16:57:41.343Z,-1.14
2019-01-19T17:00:49.551Z,-1.24
2019-01-19T17:04:10.406Z,-1.33
2019-01-19T17:07:20.771Z,-1.42
2019-01-19T17:10:03.088Z,-1.42
2019-01-19T17:13:08.342Z,-1.52
2019-01-19T17:15:59.692Z,-1.58
2019-01-19T17:18:52.782Z,-1.73
2019-01-19T17:22:03.896Z,-1.75
2019-01-19T17:25:16.212Z,-1.79
2019-01-19T17:28:29.522Z,-1.80
2019-01-19T17:31:37.641Z,-1.81
2019-01-19T17:34:31.632Z,-1.73
2019-01-19T17:37:26.972Z,-1.77
2019-01-19T17:40:41.446Z,-1.82
2019-01-19T17:43:34.282Z,-1.81
2019-01-19T17:46:18.227Z,-1.76
2019-01-19T17:49:00.836Z,-1.72
2019-01-19T17:52:28.341Z,-1.76
2019-01-19T17:55:39.712Z,-1.86
2019-01-19T17:58:33.696Z,-1.92
2019-01-19T18:01:40.646Z,-1.89
2019-01-19T18:04:36.721Z,-1.95
2019-01-19T18:07:49.647Z,-2.09
2019-01-19T18:10:30.142Z,-1.89
2019-01-19T18:13:30.433Z,-1.92
2019-01-19T18:16:54.738Z,-2.01
2019-01-19T18:19:44.635Z,-2.11
2019-01-19T18:22:50.028Z,-2.12
2019-01-19T18:26:17.752Z,-2.43
2019-01-19T18:29:30.682Z,-2.33
2019-01-19T18:32:06.571Z,-2.05
2019-01-19T18:35:08.884Z,-1.93
2019-01-19T18:37:53.972Z,-1.92
2019-01-19T18:40:40.522Z,-1.98
2019-01-19T18:44:00.878Z,-2.21
2019-01-19T18:47:34.241Z,-2.27
2019-01-19T18:50:43.972Z,-2.55
2019-01-19T18:53:58.961Z,-2.69
2019-01-19T18:57:04.243Z,-2.68
2019-01-19T19:00:17.628Z,-2.53
2019-01-19T19:03:33.495Z,-2.58
2019-01-19T19:06:31.536Z,-2.52
2019-01-19T19:09:44.421Z,-2.61
2019-01-19T19:12:53.766Z,-2.78
2019-01-19T19:16:02.531Z,-2.88
2019-01-19T19:19:14.506Z,-2.97
2019-01-19T19:22:35.728Z,-3.14
2019-01-19T19:25:47.328Z,-3.18
2019-01-19T19:28:49.700Z,-3.20
2019-01-19T19:31:38.556Z,-3.27
2019-01-19T19:34:34.781Z,-3.33
2019-01-19T19:37:37.693Z,-3.24
2019-01-19T19:40:55.561Z,-3.30
2019-01-19T19:44:10.042Z,-3.33
2019-01-19T19:47:22.615Z,-3.61
2019-01-19T19:50:39.105Z,-3.68
2019-01-19T19:53:13.767Z,-3.70
2019-01-19T19:55:44.350Z,-3.69
2019-01-19T19:58:20.731Z,-3.68
2019-01-19T20:00:56.647Z,-3.71
2019-01-19T20:03:45.837Z,-3.81
2019-01-19T20:06:19.891Z,-3.86
2019-01-19T20:08:58.991Z,-3.86
2019-01-19T20:11:34.811Z,-3.88
2019-01-19T20:14:05.256Z,-3.85
2019-01-19T20:16:44.207Z,-3.93
2019-01-19T20:19:12.653Z,-3.89
2019-01-19T20:24:51.920Z,-3.92
2019-01-19T20:27:26.156Z,-3.80
2019-01-19T20:29:54.717Z,-3.92
2019-01-19T20:32:35.615Z,-4.02
2019-01-19T20:35:13.056Z,-4.00
2019-01-19T20:37:54.150Z,-3.93
2019-01-19T20:40:36.376Z,-4.03
2019-01-19T20:43:20.785Z,-4.14
2019-01-19T20:46:20.916Z,-4.25
2019-01-19T20:49:01.242Z,-4.36
2019-01-19T20:51:35.295Z,-4.41
2019-01-19T20:54:12.177Z,-4.30
2019-01-19T20:57:00.920Z,-4.29
2019-01-19T20:59:42.227Z,-4.32
2019-01-19T21:02:21.476Z,-4.37
2019-01-19T21:04:58.797Z,-4.44
2019-01-19T21:07:37.176Z,-4.45
2019-01-19T21:10:16.422Z,-4.48
2019-01-19T21:12:56.845Z,-4.53
2019-01-19T21:15:39.041Z,-4.55
2019-01-19T21:18:06.782Z,-4.64
2019-01-19T21:20:53.265Z,-4.65
2019-01-19T21:23:42.450Z,-4.67
2019-01-19T21:26:53.010Z,-4.62
2019-01-19T21:29:42.204Z,-4.61
2019-01-19T21:32:44.266Z,-4.78
2019-01-19T21:35:12.167Z,-4.72
2019-01-19T21:38:16.558Z,-4.75
2019-01-19T21:41:28.568Z,-4.77
2019-01-19T21:44:04.350Z,-4.83
2019-01-19T21:46:47.035Z,-4.81
2019-01-19T21:49:23.437Z,-4.77
2019-01-19T21:52:18.676Z,-4.75
2019-01-19T21:54:46.279Z,-4.76
2019-01-19T22:04:26.657Z,-4.89
2019-01-19T22:07:02.348Z,-5.00
2019-01-19T22:09:40.780Z,-4.80
2019-01-19T22:12:16.589Z,-4.78
2019-01-19T22:14:53.891Z,-4.82
2019-01-19T22:17:39.489Z,-5.03
2019-01-19T22:20:10.198Z,-5.01
2019-01-19T22:22:37.765Z,-5.29
2019-01-19T22:25:47.205Z,-5.22
2019-01-19T22:28:14.806Z,-5.13
2019-01-19T22:30:42.377Z,-5.13
2019-01-19T22:33:21.046Z,-5.49
2019-01-19T22:35:56.241Z,-5.49
2019-01-19T22:38:26.885Z,-5.35
2019-01-19T22:40:54.396Z,-5.37
2019-01-19T22:43:27.181Z,-5.38
2019-01-19T22:46:23.150Z,-5.44
2019-01-19T22:49:23.550Z,-5.41
2019-01-19T22:52:06.077Z,-5.39
2019-01-19T22:55:07.282Z,-5.37
2019-01-19T22:58:03.815Z,-5.32
2019-01-19T23:01:18.431Z,-5.19
2019-01-19T23:04:14.600Z,-5.19
2019-01-19T23:07:18.461Z,-5.11
2019-01-19T23:09:45.965Z,-4.99
2019-01-19T23:12:16.722Z,-5.04
2019-01-19T23:15:46.024Z,-5.39
2019-01-19T23:18:09.426Z,-5.37
2019-01-19T23:20:48.719Z,-5.39
2019-01-19T23:23:16.301Z,-5.39
2019-01-19T23:25:43.822Z,-5.37
2019-01-19T23:28:20.640Z,-5.36
2019-01-19T23:30:48.216Z,-5.46
2019-01-19T23:33:15.672Z,-5.51
2019-01-19T23:35:43.392Z,-5.52
2019-01-19T23:38:11.086Z,-5.55
2019-01-19T23:40:38.636Z,-5.67
2019-01-19T23:43:20.850Z,-5.70
2019-01-19T23:45:48.551Z,-5.82
2019-01-19T23:48:18.931Z,-5.82
2019-01-19T23:50:46.396Z,-5.85
2019-01-19T23:53:14.142Z,-5.85
2019-01-19T23:55:41.671Z,-5.63
2019-01-19T23:58:09.284Z,-5.63
